createdAt,value
2022-12-11T00:02:14.424Z,102409.16
2022-12-11T00:07:17.521Z,102424.66
2022-12-11T00:12:20.575Z,102413.94
2022-12-11T00:17:24.062Z,102411.84
2022-12-11T00:22:27.168Z,102394.50
2022-12-11T00:27:36.598Z,102403.63
2022-12-11T00:32:39.589Z,102386.91
2022-12-11T00:37:42.635Z,102377.69
2022-12-11T00:42:45.605Z,102397.09
2022-12-11T00:47:49.682Z,102372.72
2022-12-11T00:52:52.681Z,102382.41
2022-12-11T00:57:56.932Z,102372.25
2022-12-11T01:03:00.188Z,102386.06
2022-12-11T01:08:04.286Z,102357.72
2022-12-11T01:13:08.039Z,102374.31
2022-12-11T01:18:13.583Z,102362.91
2022-12-11T01:23:16.649Z,102325.00
2022-12-11T01:28:19.683Z,102333.00
2022-12-11T01:33:22.721Z,102338.25
2022-12-11T01:38:25.724Z,102321.53
2022-12-11T01:43:28.739Z,102334.69
2022-12-11T01:48:36.686Z,102326.56
2022-12-11T01:53:46.518Z,102309.56
2022-12-11T01:58:56.742Z,102346.22
2022-12-11T02:04:00.751Z,102326.34
2022-12-11T02:09:10.757Z,102318.16
2022-12-11T02:14:24.870Z,102336.59
2022-12-11T02:19:30.432Z,102357.34
2022-12-11T02:24:57.840Z,102356.34
2022-12-11T02:30:00.817Z,102357.91
2022-12-11T02:35:12.697Z,102356.09
2022-12-11T02:40:21.790Z,102365.97
2022-12-11T02:45:26.658Z,102351.94
2022-12-11T02:50:30.678Z,102378.63
2022-12-11T02:55:36.768Z,102372.34
2022-12-11T03:00:39.828Z,102384.03
2022-12-11T03:05:43.295Z,102391.34
2022-12-11T03:10:46.904Z,102386.94
2022-12-11T03:16:19.208Z,102391.19
2022-12-11T03:21:33.481Z,102396.34
2022-12-11T03:26:43.210Z,102379.03
2022-12-11T03:31:54.826Z,102365.81
2022-12-11T03:37:00.474Z,102353.31
2022-12-11T03:42:08.244Z,102360.44
2022-12-11T03:47:13.564Z,102366.78
2022-12-11T03:52:17.639Z,102368.91
2022-12-11T03:57:26.552Z,102369.19
2022-12-11T04:02:29.544Z,102367.78
2022-12-11T04:07:32.609Z,102347.44
2022-12-11T04:12:35.610Z,102360.53
2022-12-11T04:17:57.141Z,102354.47
2022-12-11T04:23:18.703Z,102355.53
2022-12-11T04:28:21.745Z,102353.50
2022-12-11T04:33:24.783Z,102331.41
2022-12-11T04:38:28.211Z,102329.16
2022-12-11T04:43:31.245Z,102348.19
2022-12-11T04:48:35.309Z,102338.38
2022-12-11T04:53:38.879Z,102345.47
2022-12-11T04:58:43.313Z,102346.53
2022-12-11T05:03:47.051Z,102357.88
2022-12-11T05:08:50.108Z,102311.94
2022-12-11T05:13:53.158Z,102314.19
2022-12-11T05:18:56.231Z,102324.91
2022-12-11T05:23:59.242Z,102325.72
2022-12-11T05:29:08.535Z,102330.16
2022-12-11T05:34:11.512Z,102353.38
2022-12-11T05:39:14.643Z,102358.34
2022-12-11T05:44:17.642Z,102363.66
2022-12-11T05:49:25.915Z,102355.34
2022-12-11T05:54:32.072Z,102356.16
2022-12-11T05:59:35.317Z,102350.53
2022-12-11T06:04:38.285Z,102357.44
2022-12-11T06:09:41.251Z,102348.31
2022-12-11T06:14:44.337Z,102360.63
2022-12-11T06:19:47.285Z,102356.31
2022-12-11T06:24:50.338Z,102363.06
2022-12-11T06:29:53.398Z,102363.22
2022-12-11T06:34:56.425Z,102325.41
2022-12-11T06:39:59.456Z,102369.13
2022-12-11T06:45:06.391Z,102379.38
2022-12-11T06:50:09.883Z,102354.41
2022-12-11T06:55:13.215Z,102347.66
2022-12-11T07:00:16.922Z,102362.88
2022-12-11T07:05:20.070Z,102377.31
2022-12-11T07:10:23.913Z,102367.97
2022-12-11T07:15:26.869Z,102375.13
2022-12-11T07:20:30.085Z,102386.34
2022-12-11T07:25:33.102Z,102392.38
2022-12-11T07:30:39.198Z,102394.06
2022-12-11T07:35:42.180Z,102385.31
2022-12-11T07:40:45.148Z,102388.91
2022-12-11T07:45:48.241Z,102380.34
2022-12-11T07:50:51.232Z,102364.47
2022-12-11T07:55:54.278Z,102370.13
2022-12-11T08:00:58.437Z,102380.97
2022-12-11T08:06:01.554Z,102350.94
2022-12-11T08:11:05.790Z,102359.75
2022-12-11T08:16:13.257Z,102372.78
2022-12-11T08:21:19.236Z,102364.91
2022-12-11T08:26:28.012Z,102345.06
2022-12-11T08:31:31.664Z,102334.41
2022-12-11T08:36:34.760Z,102333.59
2022-12-11T08:41:37.891Z,102351.38
2022-12-11T08:46:41.034Z,102316.25
2022-12-11T08:51:44.034Z,102345.47
2022-12-11T08:56:47.058Z,102334.19
2022-12-11T09:01:50.128Z,102349.19
2022-12-11T09:06:53.158Z,102325.69
2022-12-11T09:11:56.885Z,102288.59
2022-12-11T09:16:59.938Z,102344.97
2022-12-11T09:22:02.990Z,102310.94
2022-12-11T09:27:06.501Z,102304.19
2022-12-11T09:32:09.479Z,102303.28
2022-12-11T09:37:12.528Z,102328.72
2022-12-11T09:42:21.579Z,102330.63
2022-12-11T09:47:32.542Z,102306.38
2022-12-11T09:52:52.261Z,102285.59
2022-12-11T09:58:10.727Z,102298.75
2022-12-11T10:03:19.471Z,102307.94
2022-12-11T10:08:26.012Z,102287.72
2022-12-11T10:13:33.695Z,102304.59
2022-12-11T10:18:37.547Z,102295.41
2022-12-11T10:24:03.077Z,102301.59
2022-12-11T10:29:14.453Z,102296.09
2022-12-11T10:34:33.428Z,102298.47
2022-12-11T10:39:36.408Z,102294.03
2022-12-11T10:44:39.383Z,102302.88
2022-12-11T10:49:55.737Z,102311.69
2022-12-11T10:55:10.555Z,102309.03
2022-12-11T11:00:32.702Z,102298.88
2022-12-11T11:05:38.032Z,102272.53
2022-12-11T11:10:55.895Z,102295.19
2022-12-11T11:16:07.804Z,102286.03
2022-12-11T11:21:19.401Z,102307.81
2022-12-11T11:26:23.434Z,102300.28
2022-12-11T11:31:35.742Z,102292.44
2022-12-11T11:36:38.927Z,102293.50
2022-12-11T11:42:05.131Z,102303.75
2022-12-11T11:47:17.351Z,102324.78
2022-12-11T11:52:36.746Z,102299.50
2022-12-11T11:57:46.220Z,102336.25
2022-12-11T12:02:54.913Z,102334.22
2022-12-11T12:08:14.656Z,102340.78
2022-12-11T12:13:51.492Z,102351.97
2022-12-11T12:19:13.159Z,102334.41
2022-12-11T12:24:36.285Z,102347.31
2022-12-11T12:30:02.230Z,102339.63
2022-12-11T12:35:24.725Z,102333.34
2022-12-11T12:41:06.044Z,102356.28
2022-12-11T12:46:11.720Z,102372.88
2022-12-11T12:51:16.748Z,102362.34
2022-12-11T12:56:21.150Z,102384.75
2022-12-11T13:01:29.101Z,102359.16
2022-12-11T13:06:39.312Z,102380.97
2022-12-11T13:11:42.493Z,102352.00
2022-12-11T13:16:48.238Z,102381.50
2022-12-11T13:22:18.150Z,102364.53
2022-12-11T13:27:38.105Z,102394.19
2022-12-11T13:32:57.737Z,102385.47
2022-12-11T13:38:15.865Z,102377.09
2022-12-11T13:43:24.094Z,102382.91
2022-12-11T13:48:48.079Z,102365.88
2022-12-11T13:54:03.918Z,102386.19
2022-12-11T13:59:21.056Z,102398.78
2022-12-11T14:04:25.736Z,102399.75
2022-12-11T14:09:29.413Z,102395.72
2022-12-11T14:14:44.062Z,102373.28
2022-12-11T14:19:49.162Z,102387.00
2022-12-11T14:24:54.419Z,102359.56
2022-12-11T14:29:57.627Z,102359.56
2022-12-11T14:35:04.138Z,102365.25
2022-12-11T14:40:16.328Z,102358.00
2022-12-11T14:45:21.562Z,102362.25
2022-12-11T14:50:34.974Z,102360.47
2022-12-11T14:55:39.858Z,102343.13
2022-12-11T15:00:43.061Z,102370.31
2022-12-11T15:05:57.689Z,102344.19
2022-12-11T15:11:08.931Z,102362.53
2022-12-11T15:16:15.589Z,102388.91
2022-12-11T15:21:28.520Z,102389.50
2022-12-11T15:26:44.737Z,102380.97
2022-12-11T15:31:48.023Z,102378.28
2022-12-11T15:36:51.188Z,102382.50
2022-12-11T15:41:54.441Z,102402.91
2022-12-11T15:47:00.435Z,102419.66
2022-12-11T15:52:03.659Z,102408.31
2022-12-11T15:57:13.389Z,102425.94
2022-12-11T16:02:16.903Z,102398.06
2022-12-11T16:07:25.479Z,102405.34
2022-12-11T16:12:28.508Z,102405.88
2022-12-11T16:17:34.215Z,102413.69
2022-12-11T16:22:37.416Z,102392.41
2022-12-11T16:27:40.764Z,102420.44
2022-12-11T16:32:44.505Z,102395.66
2022-12-11T16:37:54.058Z,102395.53
2022-12-11T16:42:58.002Z,102372.09
2022-12-11T16:48:04.821Z,102390.31
2022-12-11T16:53:10.827Z,102389.44
2022-12-11T16:58:20.290Z,102393.34
2022-12-11T17:03:23.310Z,102390.97
2022-12-11T17:08:26.677Z,102380.84
2022-12-11T17:13:34.398Z,102383.16
2022-12-11T17:18:39.202Z,102368.94
2022-12-11T17:23:42.607Z,102371.34
2022-12-11T17:28:45.859Z,102364.75
2022-12-11T17:33:52.175Z,102367.66
2022-12-11T17:38:55.407Z,102360.25
2022-12-11T17:43:58.400Z,102354.66
2022-12-11T17:49:04.419Z,102370.75
2022-12-11T17:54:07.468Z,102357.78
2022-12-11T17:59:10.515Z,102337.56
2022-12-11T18:04:13.931Z,102378.16
2022-12-11T18:09:17.074Z,102356.66
2022-12-11T18:14:20.111Z,102375.56
2022-12-11T18:19:23.234Z,102360.31
2022-12-11T18:24:31.962Z,102382.00
2022-12-11T18:29:35.136Z,102390.84
2022-12-11T18:34:38.185Z,102353.75
2022-12-11T18:39:41.467Z,102379.22
2022-12-11T18:44:45.755Z,102375.63
2022-12-11T18:49:48.800Z,102388.41
2022-12-11T18:54:54.693Z,102401.66
2022-12-11T19:00:02.644Z,102400.97
2022-12-11T19:05:06.398Z,102377.78
2022-12-11T19:10:10.051Z,102389.91
2022-12-11T19:15:13.288Z,102390.00
2022-12-11T19:20:47.457Z,102376.94
2022-12-11T19:25:45.095Z,102412.75
2022-12-11T19:30:49.449Z,102413.13
2022-12-11T19:36:01.948Z,102406.59
2022-12-11T19:41:10.828Z,102379.56
2022-12-11T19:46:14.852Z,102394.41
2022-12-11T19:51:24.387Z,102389.78
2022-12-11T19:56:27.510Z,102401.19
2022-12-11T20:01:32.307Z,102404.25
2022-12-11T20:06:37.703Z,102395.34
2022-12-11T20:11:43.234Z,102386.56
2022-12-11T20:17:09.777Z,102388.63
2022-12-11T20:22:10.047Z,102397.50
2022-12-11T20:27:13.467Z,102395.06
2022-12-11T20:32:16.520Z,102392.78
2022-12-11T20:37:19.965Z,102411.63
2022-12-11T20:42:24.313Z,102429.75
2022-12-11T20:47:27.321Z,102415.50
2022-12-11T20:52:30.376Z,102422.69
2022-12-11T20:57:33.589Z,102418.25
2022-12-11T21:02:36.629Z,102402.78
2022-12-11T21:07:39.640Z,102397.78
2022-12-11T21:12:42.664Z,102398.78
2022-12-11T21:17:45.683Z,102384.56
2022-12-11T21:22:48.808Z,102379.78
2022-12-11T21:27:52.184Z,102376.91
2022-12-11T21:32:55.190Z,102409.06
2022-12-11T21:37:58.319Z,102398.09
2022-12-11T21:43:01.359Z,102400.38
2022-12-11T21:48:04.740Z,102416.31
2022-12-11T21:53:07.892Z,102384.50
2022-12-11T21:58:11.046Z,102402.78
2022-12-11T22:03:14.094Z,102406.63
2022-12-11T22:08:17.148Z,102378.47
2022-12-11T22:13:20.337Z,102389.41
2022-12-11T22:18:27.310Z,102387.34
2022-12-11T22:23:30.358Z,102365.06
2022-12-11T22:28:33.496Z,102379.16
2022-12-11T22:33:36.494Z,102360.00
2022-12-11T22:38:40.129Z,102366.03
2022-12-11T22:49:11.893Z,102370.34
2022-12-11T22:54:16.714Z,102370.06
2022-12-11T22:59:19.747Z,102384.25
2022-12-11T23:04:22.856Z,102396.84
2022-12-11T23:09:26.307Z,102368.13
2022-12-11T23:14:29.419Z,102389.53
2022-12-11T23:19:32.489Z,102382.19
2022-12-11T23:24:35.525Z,102356.84
2022-12-11T23:29:38.612Z,102377.94
2022-12-11T23:34:41.699Z,102371.31
2022-12-11T23:39:44.730Z,102367.16
2022-12-11T23:44:47.797Z,102389.22
2022-12-11T23:49:50.901Z,102367.91
2022-12-11T23:54:55.732Z,102365.06
2022-12-11T23:59:59.323Z,102362.44
